Pagina principale
METAR-TAF:

METAR-TAF

Aeroporti :

Aeroporto di Piacenza-San Damiano

Piacenza, Italia

latitudine: 44-55N, longitudine: 009-44E, altezza: 134 m

Osservazione

Il bollettino è stato emesso 1 ora e 0 minuti fa, alle 17:55 UTC
Vento 1 kt da sud
Temperature 10°C
Umidità 82%
Pressione 1027 hPa
Visibilità: 4000 m
Nubi sparse ad un'altezza di 4000 ft
Nuvoloso ad un'altezza di 5000 ft
foschia

METAR: LIMS 161755Z 18001KT 4000 BR SCT040 BKN050 10/07 Q1027 RMK OVC VIS MIN 4000 WIND THR30 15002KT GRN

Ora: 19:55 (18:55 UTC)


TAF: mancante

Osservazioni e previsioni meteorologiche di più di 4000 aeroporti (messaggi METAR e TAF).

Le stazioni disponibili sono rappresentate dai dischi gialli e rossi sulla carta.

Puntare il mouse per vedere il nome della stazione.

Clicca sopra per visualizzare le osservazioni e previsioni meteorologiche.

Per cambiare la mappa : fare clic sui pulsanti verdi con una croce nera per ingrandire, il pulsante verde con un trattino per diminuire, o sulla freccia verde per le mappe adiacenti.


METAR-TAF: